sensor_id;sensor_type;location;lat;lon;timestamp;temperature;humidity
5352;DHT22;2698;51.454;6.736;2022-07-23T00:01:10;17.10;99.90
5352;DHT22;2698;51.454;6.736;2022-07-23T00:03:37;17.00;99.90
5352;DHT22;2698;51.454;6.736;2022-07-23T00:06:04;17.00;99.90
5352;DHT22;2698;51.454;6.736;2022-07-23T00:08:31;17.00;99.90
5352;DHT22;2698;51.454;6.736;2022-07-23T00:10:58;17.00;99.90
5352;DHT22;2698;51.454;6.736;2022-07-23T00:13:26;17.00;99.90
5352;DHT22;2698;51.454;6.736;2022-07-23T00:15:54;17.10;99.90
5352;DHT22;2698;51.454;6.736;2022-07-23T00:18:21;17.10;99.90
5352;DHT22;2698;51.454;6.736;2022-07-23T00:20:48;17.10;99.90
5352;DHT22;2698;51.454;6.736;2022-07-23T00:23:15;17.10;99.90
5352;DHT22;2698;51.454;6.736;2022-07-23T00:25:42;17.10;99.90
5352;DHT22;2698;51.454;6.736;2022-07-23T00:28:08;17.10;99.90
5352;DHT22;2698;51.454;6.736;2022-07-23T00:30:35;17.00;99.90
5352;DHT22;2698;51.454;6.736;2022-07-23T00:33:06;17.00;99.90
5352;DHT22;2698;51.454;6.736;2022-07-23T00:35:34;16.90;99.90
5352;DHT22;2698;51.454;6.736;2022-07-23T00:38:02;16.90;99.90
5352;DHT22;2698;51.454;6.736;2022-07-23T00:40:30;16.90;99.90
5352;DHT22;2698;51.454;6.736;2022-07-23T00:42:57;17.00;99.90
5352;DHT22;2698;51.454;6.736;2022-07-23T00:45:24;17.00;99.90
5352;DHT22;2698;51.454;6.736;2022-07-23T00:47:52;17.00;99.90
5352;DHT22;2698;51.454;6.736;2022-07-23T00:50:20;17.00;99.90
5352;DHT22;2698;51.454;6.736;2022-07-23T00:52:47;17.00;99.90
5352;DHT22;2698;51.454;6.736;2022-07-23T00:55:14;17.00;99.90
5352;DHT22;2698;51.454;6.736;2022-07-23T00:57:41;16.90;99.90
5352;DHT22;2698;51.454;6.736;2022-07-23T01:00:10;16.90;99.90
5352;DHT22;2698;51.454;6.736;2022-07-23T01:02:37;16.90;99.90
5352;DHT22;2698;51.454;6.736;2022-07-23T01:05:05;16.80;99.90
5352;DHT22;2698;51.454;6.736;2022-07-23T01:07:33;16.80;99.90
5352;DHT22;2698;51.454;6.736;2022-07-23T01:10:00;16.80;99.90
5352;DHT22;2698;51.454;6.736;2022-07-23T01:12:27;16.80;99.90
5352;DHT22;2698;51.454;6.736;2022-07-23T01:14:55;16.80;99.90
5352;DHT22;2698;51.454;6.736;2022-07-23T01:17:22;16.70;99.90
5352;DHT22;2698;51.454;6.736;2022-07-23T01:19:49;16.80;99.90
5352;DHT22;2698;51.454;6.736;2022-07-23T01:22:18;16.70;99.90
5352;DHT22;2698;51.454;6.736;2022-07-23T01:24:46;16.80;99.90
5352;DHT22;2698;51.454;6.736;2022-07-23T01:27:13;16.80;99.90
5352;DHT22;2698;51.454;6.736;2022-07-23T01:29:43;16.80;99.90
5352;DHT22;2698;51.454;6.736;2022-07-23T01:32:10;16.80;99.90
5352;DHT22;2698;51.454;6.736;2022-07-23T01:34:36;16.80;99.90
5352;DHT22;2698;51.454;6.736;2022-07-23T01:37:03;16.80;99.90
5352;DHT22;2698;51.454;6.736;2022-07-23T01:39:30;16.80;99.90
5352;DHT22;2698;51.454;6.736;2022-07-23T01:41:58;16.80;99.90
5352;DHT22;2698;51.454;6.736;2022-07-23T01:44:25;16.80;99.90
5352;DHT22;2698;51.454;6.736;2022-07-23T01:46:52;16.70;99.90
5352;DHT22;2698;51.454;6.736;2022-07-23T01:49:19;16.70;99.90
5352;DHT22;2698;51.454;6.736;2022-07-23T01:51:45;16.60;99.90
5352;DHT22;2698;51.454;6.736;2022-07-23T01:54:26;16.60;99.90
5352;DHT22;2698;51.454;6.736;2022-07-23T01:56:53;16.60;99.90
5352;DHT22;2698;51.454;6.736;2022-07-23T01:59:21;16.60;99.90
5352;DHT22;2698;51.454;6.736;2022-07-23T02:01:48;16.60;99.90
5352;DHT22;2698;51.454;6.736;2022-07-23T02:04:16;16.50;99.90
5352;DHT22;2698;51.454;6.736;2022-07-23T02:06:43;16.50;99.90
5352;DHT22;2698;51.454;6.736;2022-07-23T02:09:10;16.50;99.90
5352;DHT22;2698;51.454;6.736;2022-07-23T02:11:37;16.50;99.90
5352;DHT22;2698;51.454;6.736;2022-07-23T02:14:03;16.40;99.90
5352;DHT22;2698;51.454;6.736;2022-07-23T02:16:32;16.40;99.90
5352;DHT22;2698;51.454;6.736;2022-07-23T02:18:58;16.40;99.90
5352;DHT22;2698;51.454;6.736;2022-07-23T02:21:25;16.30;99.90
5352;DHT22;2698;51.454;6.736;2022-07-23T02:23:52;16.30;99.90
5352;DHT22;2698;51.454;6.736;2022-07-23T02:26:19;16.30;99.90
5352;DHT22;2698;51.454;6.736;2022-07-23T02:28:46;16.30;99.90
5352;DHT22;2698;51.454;6.736;2022-07-23T02:31:13;16.30;99.90
5352;DHT22;2698;51.454;6.736;2022-07-23T02:33:41;16.40;99.90
5352;DHT22;2698;51.454;6.736;2022-07-23T02:36:08;16.30;99.90
5352;DHT22;2698;51.454;6.736;2022-07-23T02:38:35;16.40;99.90
5352;DHT22;2698;51.454;6.736;2022-07-23T02:41:02;16.40;99.90
5352;DHT22;2698;51.454;6.736;2022-07-23T02:43:29;16.30;99.90
5352;DHT22;2698;51.454;6.736;2022-07-23T02:45:55;16.20;99.90
5352;DHT22;2698;51.454;6.736;2022-07-23T02:48:22;16.30;99.90
5352;DHT22;2698;51.454;6.736;2022-07-23T02:50:50;16.30;99.90
5352;DHT22;2698;51.454;6.736;2022-07-23T02:53:18;16.30;99.90
5352;DHT22;2698;51.454;6.736;2022-07-23T02:55:44;16.20;99.90
5352;DHT22;2698;51.454;6.736;2022-07-23T02:58:11;16.20;99.90
5352;DHT22;2698;51.454;6.736;2022-07-23T03:00:38;16.10;99.90
5352;DHT22;2698;51.454;6.736;2022-07-23T03:03:05;16.00;99.90
5352;DHT22;2698;51.454;6.736;2022-07-23T03:05:32;16.10;99.90
5352;DHT22;2698;51.454;6.736;2022-07-23T03:08:00;16.10;99.90
5352;DHT22;2698;51.454;6.736;2022-07-23T03:10:27;16.00;99.90
5352;DHT22;2698;51.454;6.736;2022-07-23T03:12:54;16.00;99.90
5352;DHT22;2698;51.454;6.736;2022-07-23T03:15:21;15.90;99.90
5352;DHT22;2698;51.454;6.736;2022-07-23T03:17:48;15.90;99.90
5352;DHT22;2698;51.454;6.736;2022-07-23T03:20:14;15.90;99.90
5352;DHT22;2698;51.454;6.736;2022-07-23T03:22:41;15.90;99.90
5352;DHT22;2698;51.454;6.736;2022-07-23T03:25:10;15.80;99.90
5352;DHT22;2698;51.454;6.736;2022-07-23T03:27:37;15.80;99.90
5352;DHT22;2698;51.454;6.736;2022-07-23T03:30:04;15.80;99.90
5352;DHT22;2698;51.454;6.736;2022-07-23T03:32:31;15.80;99.90
5352;DHT22;2698;51.454;6.736;2022-07-23T03:34:58;15.80;99.90
5352;DHT22;2698;51.454;6.736;2022-07-23T03:37:25;15.70;99.90
5352;DHT22;2698;51.454;6.736;2022-07-23T03:39:52;15.70;99.90
5352;DHT22;2698;51.454;6.736;2022-07-23T03:42:20;15.70;99.90
5352;DHT22;2698;51.454;6.736;2022-07-23T03:44:47;15.70;99.90
5352;DHT22;2698;51.454;6.736;2022-07-23T03:47:14;15.70;99.90
5352;DHT22;2698;51.454;6.736;2022-07-23T03:49:42;15.70;99.90
5352;DHT22;2698;51.454;6.736;2022-07-23T03:52:09;15.70;99.90
5352;DHT22;2698;51.454;6.736;2022-07-23T03:54:36;15.70;99.90
5352;DHT22;2698;51.454;6.736;2022-07-23T03:57:03;15.70;99.90
5352;DHT22;2698;51.454;6.736;2022-07-23T03:59:31;15.60;99.90
5352;DHT22;2698;51.454;6.736;2022-07-23T04:01:58;15.60;99.90
5352;DHT22;2698;51.454;6.736;2022-07-23T04:04:24;15.60;99.90
5352;DHT22;2698;51.454;6.736;2022-07-23T04:06:51;15.50;99.90
5352;DHT22;2698;51.454;6.736;2022-07-23T04:09:18;15.50;99.90
5352;DHT22;2698;51.454;6.736;2022-07-23T04:11:45;15.50;99.90
5352;DHT22;2698;51.454;6.736;2022-07-23T04:14:12;15.50;99.90
5352;DHT22;2698;51.454;6.736;2022-07-23T04:16:40;15.50;99.90
5352;DHT22;2698;51.454;6.736;2022-07-23T04:19:06;15.50;99.90
5352;DHT22;2698;51.454;6.736;2022-07-23T04:21:33;15.50;99.90
5352;DHT22;2698;51.454;6.736;2022-07-23T04:24:00;15.50;99.90
5352;DHT22;2698;51.454;6.736;2022-07-23T04:26:27;15.50;99.90
5352;DHT22;2698;51.454;6.736;2022-07-23T04:28:54;15.50;99.90
5352;DHT22;2698;51.454;6.736;2022-07-23T04:31:20;15.60;99.90
5352;DHT22;2698;51.454;6.736;2022-07-23T04:33:49;15.60;99.90
5352;DHT22;2698;51.454;6.736;2022-07-23T04:36:15;15.60;99.90
5352;DHT22;2698;51.454;6.736;2022-07-23T04:38:42;15.70;99.90
5352;DHT22;2698;51.454;6.736;2022-07-23T04:41:09;15.70;99.90
5352;DHT22;2698;51.454;6.736;2022-07-23T04:43:36;15.70;99.90
5352;DHT22;2698;51.454;6.736;2022-07-23T04:46:03;15.70;99.90
5352;DHT22;2698;51.454;6.736;2022-07-23T04:48:30;15.80;99.90
5352;DHT22;2698;51.454;6.736;2022-07-23T04:50:58;15.90;99.90
5352;DHT22;2698;51.454;6.736;2022-07-23T04:53:25;15.80;99.90
5352;DHT22;2698;51.454;6.736;2022-07-23T04:55:51;15.90;99.90
5352;DHT22;2698;51.454;6.736;2022-07-23T04:58:18;15.90;99.90
5352;DHT22;2698;51.454;6.736;2022-07-23T05:00:45;16.00;99.90
5352;DHT22;2698;51.454;6.736;2022-07-23T05:03:12;16.00;99.90
5352;DHT22;2698;51.454;6.736;2022-07-23T05:05:39;16.00;99.90
5352;DHT22;2698;51.454;6.736;2022-07-23T05:08:07;16.10;99.90
5352;DHT22;2698;51.454;6.736;2022-07-23T05:10:34;16.10;99.90
5352;DHT22;2698;51.454;6.736;2022-07-23T05:13:01;16.10;99.90
5352;DHT22;2698;51.454;6.736;2022-07-23T05:15:27;16.20;99.90
5352;DHT22;2698;51.454;6.736;2022-07-23T05:17:54;16.30;99.90
5352;DHT22;2698;51.454;6.736;2022-07-23T05:20:21;16.50;99.90
5352;DHT22;2698;51.454;6.736;2022-07-23T05:22:48;17.10;99.90
5352;DHT22;2698;51.454;6.736;2022-07-23T05:25:16;18.80;99.90
5352;DHT22;2698;51.454;6.736;2022-07-23T05:27:43;20.00;99.90
5352;DHT22;2698;51.454;6.736;2022-07-23T05:30:11;20.70;99.90
5352;DHT22;2698;51.454;6.736;2022-07-23T05:32:38;21.10;99.90
5352;DHT22;2698;51.454;6.736;2022-07-23T05:35:06;21.30;99.90
5352;DHT22;2698;51.454;6.736;2022-07-23T05:37:33;21.60;99.90
5352;DHT22;2698;51.454;6.736;2022-07-23T05:40:01;21.40;99.90
5352;DHT22;2698;51.454;6.736;2022-07-23T05:42:30;22.00;99.90
5352;DHT22;2698;51.454;6.736;2022-07-23T05:44:56;22.20;99.90
5352;DHT22;2698;51.454;6.736;2022-07-23T05:47:23;22.60;99.90
5352;DHT22;2698;51.454;6.736;2022-07-23T05:49:50;22.70;99.90
5352;DHT22;2698;51.454;6.736;2022-07-23T05:52:17;22.90;99.90
5352;DHT22;2698;51.454;6.736;2022-07-23T05:54:44;23.10;99.90
5352;DHT22;2698;51.454;6.736;2022-07-23T05:57:10;23.40;99.90
5352;DHT22;2698;51.454;6.736;2022-07-23T05:59:39;23.30;99.90
5352;DHT22;2698;51.454;6.736;2022-07-23T06:02:06;22.30;99.90
5352;DHT22;2698;51.454;6.736;2022-07-23T06:04:33;22.70;99.90
5352;DHT22;2698;51.454;6.736;2022-07-23T06:07:00;23.10;99.90
5352;DHT22;2698;51.454;6.736;2022-07-23T06:09:26;22.80;99.90
5352;DHT22;2698;51.454;6.736;2022-07-23T06:11:53;22.60;99.90
5352;DHT22;2698;51.454;6.736;2022-07-23T06:14:20;22.50;99.90
5352;DHT22;2698;51.454;6.736;2022-07-23T06:16:48;22.50;99.90
5352;DHT22;2698;51.454;6.736;2022-07-23T06:19:15;21.80;99.90
5352;DHT22;2698;51.454;6.736;2022-07-23T06:21:42;21.90;99.90
5352;DHT22;2698;51.454;6.736;2022-07-23T06:24:08;22.20;99.90
5352;DHT22;2698;51.454;6.736;2022-07-23T06:26:35;22.20;99.90
5352;DHT22;2698;51.454;6.736;2022-07-23T06:29:02;22.10;99.90
5352;DHT22;2698;51.454;6.736;2022-07-23T06:31:29;21.90;99.90
5352;DHT22;2698;51.454;6.736;2022-07-23T06:33:57;21.80;99.90
5352;DHT22;2698;51.454;6.736;2022-07-23T06:36:24;21.60;99.90
5352;DHT22;2698;51.454;6.736;2022-07-23T06:38:51;22.10;99.90
5352;DHT22;2698;51.454;6.736;2022-07-23T06:41:17;21.80;99.90
5352;DHT22;2698;51.454;6.736;2022-07-23T06:43:44;21.50;99.90
5352;DHT22;2698;51.454;6.736;2022-07-23T06:46:11;21.30;99.90
5352;DHT22;2698;51.454;6.736;2022-07-23T06:48:38;21.20;99.90
5352;DHT22;2698;51.454;6.736;2022-07-23T06:51:06;21.70;99.90
5352;DHT22;2698;51.454;6.736;2022-07-23T06:53:33;21.20;99.90
5352;DHT22;2698;51.454;6.736;2022-07-23T06:56:00;21.40;99.90
5352;DHT22;2698;51.454;6.736;2022-07-23T06:58:27;21.10;99.90
5352;DHT22;2698;51.454;6.736;2022-07-23T07:00:53;21.20;99.90
5352;DHT22;2698;51.454;6.736;2022-07-23T07:03:22;21.50;99.90
5352;DHT22;2698;51.454;6.736;2022-07-23T07:05:49;21.40;99.90
5352;DHT22;2698;51.454;6.736;2022-07-23T07:08:17;21.70;99.90
5352;DHT22;2698;51.454;6.736;2022-07-23T07:10:44;22.20;99.90
5352;DHT22;2698;51.454;6.736;2022-07-23T07:13:12;22.20;99.90
5352;DHT22;2698;51.454;6.736;2022-07-23T07:15:39;22.10;99.90
5352;DHT22;2698;51.454;6.736;2022-07-23T07:18:05;22.20;99.90
5352;DHT22;2698;51.454;6.736;2022-07-23T07:20:32;22.00;99.90
5352;DHT22;2698;51.454;6.736;2022-07-23T07:22:59;22.10;99.90
5352;DHT22;2698;51.454;6.736;2022-07-23T07:25:27;21.80;99.90
5352;DHT22;2698;51.454;6.736;2022-07-23T07:27:54;21.50;99.90
5352;DHT22;2698;51.454;6.736;2022-07-23T07:30:21;21.50;99.90
5352;DHT22;2698;51.454;6.736;2022-07-23T07:32:48;21.20;99.90
5352;DHT22;2698;51.454;6.736;2022-07-23T07:35:15;21.40;99.90
5352;DHT22;2698;51.454;6.736;2022-07-23T07:37:42;21.30;99.90
5352;DHT22;2698;51.454;6.736;2022-07-23T07:40:09;22.20;99.90
5352;DHT22;2698;51.454;6.736;2022-07-23T07:42:45;22.80;99.90
5352;DHT22;2698;51.454;6.736;2022-07-23T07:45:12;23.30;99.90
5352;DHT22;2698;51.454;6.736;2022-07-23T07:47:39;22.90;99.90
5352;DHT22;2698;51.454;6.736;2022-07-23T07:50:06;22.50;99.90
5352;DHT22;2698;51.454;6.736;2022-07-23T07:52:34;23.00;99.90
5352;DHT22;2698;51.454;6.736;2022-07-23T07:55:01;23.20;99.90
5352;DHT22;2698;51.454;6.736;2022-07-23T07:57:28;23.90;99.90
5352;DHT22;2698;51.454;6.736;2022-07-23T07:59:57;24.30;99.90
5352;DHT22;2698;51.454;6.736;2022-07-23T08:02:24;24.00;99.90
5352;DHT22;2698;51.454;6.736;2022-07-23T08:04:51;24.20;99.90
5352;DHT22;2698;51.454;6.736;2022-07-23T08:07:18;24.00;99.90
5352;DHT22;2698;51.454;6.736;2022-07-23T08:09:45;23.40;99.90
5352;DHT22;2698;51.454;6.736;2022-07-23T08:12:12;23.30;99.90
5352;DHT22;2698;51.454;6.736;2022-07-23T08:14:39;23.70;99.90
5352;DHT22;2698;51.454;6.736;2022-07-23T08:17:07;23.30;99.90
5352;DHT22;2698;51.454;6.736;2022-07-23T08:19:34;23.40;99.90
5352;DHT22;2698;51.454;6.736;2022-07-23T08:22:00;23.30;99.90
5352;DHT22;2698;51.454;6.736;2022-07-23T08:24:27;23.00;99.90
5352;DHT22;2698;51.454;6.736;2022-07-23T08:26:54;23.10;99.90
5352;DHT22;2698;51.454;6.736;2022-07-23T08:29:21;23.00;99.90
5352;DHT22;2698;51.454;6.736;2022-07-23T08:31:47;22.70;99.90
5352;DHT22;2698;51.454;6.736;2022-07-23T08:34:16;23.00;99.90
5352;DHT22;2698;51.454;6.736;2022-07-23T08:36:42;23.10;99.90
5352;DHT22;2698;51.454;6.736;2022-07-23T08:39:09;22.70;99.90
5352;DHT22;2698;51.454;6.736;2022-07-23T08:41:39;23.00;99.90
5352;DHT22;2698;51.454;6.736;2022-07-23T08:44:07;23.20;99.90
5352;DHT22;2698;51.454;6.736;2022-07-23T08:46:36;23.10;99.90
5352;DHT22;2698;51.454;6.736;2022-07-23T08:49:03;23.00;99.90
5352;DHT22;2698;51.454;6.736;2022-07-23T08:51:32;23.00;99.90
5352;DHT22;2698;51.454;6.736;2022-07-23T08:54:00;22.90;99.90
5352;DHT22;2698;51.454;6.736;2022-07-23T08:56:27;22.70;99.90
5352;DHT22;2698;51.454;6.736;2022-07-23T08:58:54;22.90;99.90
5352;DHT22;2698;51.454;6.736;2022-07-23T09:01:21;23.10;99.90
5352;DHT22;2698;51.454;6.736;2022-07-23T09:03:48;23.50;99.90
5352;DHT22;2698;51.454;6.736;2022-07-23T09:06:14;23.70;99.90
5352;DHT22;2698;51.454;6.736;2022-07-23T09:08:43;22.90;99.90
5352;DHT22;2698;51.454;6.736;2022-07-23T09:11:12;22.60;99.90
5352;DHT22;2698;51.454;6.736;2022-07-23T09:13:42;22.70;99.90
5352;DHT22;2698;51.454;6.736;2022-07-23T09:16:14;23.00;99.90
5352;DHT22;2698;51.454;6.736;2022-07-23T09:18:44;23.10;99.50
5352;DHT22;2698;51.454;6.736;2022-07-23T09:21:13;23.20;97.40
5352;DHT22;2698;51.454;6.736;2022-07-23T09:23:44;23.60;95.10
5352;DHT22;2698;51.454;6.736;2022-07-23T09:26:19;23.80;93.20
5352;DHT22;2698;51.454;6.736;2022-07-23T09:28:55;24.00;91.90
5352;DHT22;2698;51.454;6.736;2022-07-23T09:31:22;23.50;90.20
5352;DHT22;2698;51.454;6.736;2022-07-23T09:33:50;24.00;88.60
5352;DHT22;2698;51.454;6.736;2022-07-23T09:36:27;23.50;88.70
5352;DHT22;2698;51.454;6.736;2022-07-23T09:38:55;24.00;88.90
5352;DHT22;2698;51.454;6.736;2022-07-23T09:41:22;23.50;83.00
5352;DHT22;2698;51.454;6.736;2022-07-23T09:43:55;23.50;84.00
5352;DHT22;2698;51.454;6.736;2022-07-23T09:46:24;23.80;84.00
5352;DHT22;2698;51.454;6.736;2022-07-23T09:48:51;23.90;83.10
5352;DHT22;2698;51.454;6.736;2022-07-23T09:51:18;23.40;79.10
5352;DHT22;2698;51.454;6.736;2022-07-23T09:53:49;23.90;84.10
5352;DHT22;2698;51.454;6.736;2022-07-23T09:56:20;23.90;81.60
5352;DHT22;2698;51.454;6.736;2022-07-23T09:58:50;24.10;78.40
5352;DHT22;2698;51.454;6.736;2022-07-23T10:01:17;23.70;77.50
5352;DHT22;2698;51.454;6.736;2022-07-23T10:03:46;24.40;79.00
5352;DHT22;2698;51.454;6.736;2022-07-23T10:06:14;24.50;78.50
5352;DHT22;2698;51.454;6.736;2022-07-23T10:08:42;24.20;76.30
5352;DHT22;2698;51.454;6.736;2022-07-23T10:11:11;24.30;78.80
5352;DHT22;2698;51.454;6.736;2022-07-23T10:13:42;24.80;76.90
5352;DHT22;2698;51.454;6.736;2022-07-23T10:16:18;24.70;75.60
5352;DHT22;2698;51.454;6.736;2022-07-23T10:18:46;24.40;74.10
5352;DHT22;2698;51.454;6.736;2022-07-23T10:21:18;24.70;72.60
5352;DHT22;2698;51.454;6.736;2022-07-23T10:23:57;24.50;72.90
5352;DHT22;2698;51.454;6.736;2022-07-23T10:26:32;23.70;72.30
5352;DHT22;2698;51.454;6.736;2022-07-23T10:29:12;24.60;73.40
5352;DHT22;2698;51.454;6.736;2022-07-23T10:31:46;24.30;69.60
5352;DHT22;2698;51.454;6.736;2022-07-23T10:34:20;24.50;68.50
5352;DHT22;2698;51.454;6.736;2022-07-23T10:36:52;24.60;69.90
5352;DHT22;2698;51.454;6.736;2022-07-23T10:39:24;24.70;69.00
5352;DHT22;2698;51.454;6.736;2022-07-23T10:41:51;24.80;70.60
5352;DHT22;2698;51.454;6.736;2022-07-23T10:44:21;25.10;68.90
5352;DHT22;2698;51.454;6.736;2022-07-23T10:46:57;24.80;67.70
5352;DHT22;2698;51.454;6.736;2022-07-23T10:49:38;25.10;64.60
5352;DHT22;2698;51.454;6.736;2022-07-23T10:52:32;24.90;58.60
5352;DHT22;2698;51.454;6.736;2022-07-23T10:57:55;25.20;58.60
5352;DHT22;2698;51.454;6.736;2022-07-23T11:00:24;25.10;57.30
5352;DHT22;2698;51.454;6.736;2022-07-23T11:02:53;25.10;56.60
5352;DHT22;2698;51.454;6.736;2022-07-23T11:05:21;25.20;56.10
5352;DHT22;2698;51.454;6.736;2022-07-23T11:08:14;25.00;54.70
5352;DHT22;2698;51.454;6.736;2022-07-23T11:10:44;25.20;53.30
5352;DHT22;2698;51.454;6.736;2022-07-23T11:13:28;25.30;53.70
5352;DHT22;2698;51.454;6.736;2022-07-23T11:16:22;25.20;54.00
5352;DHT22;2698;51.454;6.736;2022-07-23T11:21:49;25.70;54.80
5352;DHT22;2698;51.454;6.736;2022-07-23T11:24:18;26.00;54.40
5352;DHT22;2698;51.454;6.736;2022-07-23T11:26:57;25.30;53.60
5352;DHT22;2698;51.454;6.736;2022-07-23T11:29:44;26.10;54.60
5352;DHT22;2698;51.454;6.736;2022-07-23T11:32:32;25.80;52.80
5352;DHT22;2698;51.454;6.736;2022-07-23T11:35:01;25.40;52.60
5352;DHT22;2698;51.454;6.736;2022-07-23T11:37:32;25.60;50.70
5352;DHT22;2698;51.454;6.736;2022-07-23T11:40:02;25.60;51.90
5352;DHT22;2698;51.454;6.736;2022-07-23T11:42:30;26.00;50.60
5352;DHT22;2698;51.454;6.736;2022-07-23T11:44:56;26.10;49.90
5352;DHT22;2698;51.454;6.736;2022-07-23T11:47:25;26.10;51.10
5352;DHT22;2698;51.454;6.736;2022-07-23T11:49:55;25.90;50.60
5352;DHT22;2698;51.454;6.736;2022-07-23T11:52:23;25.80;49.30
5352;DHT22;2698;51.454;6.736;2022-07-23T11:54:53;25.70;49.20
5352;DHT22;2698;51.454;6.736;2022-07-23T11:57:23;25.70;49.80
5352;DHT22;2698;51.454;6.736;2022-07-23T11:59:55;25.60;49.10
5352;DHT22;2698;51.454;6.736;2022-07-23T12:02:22;25.70;48.90
5352;DHT22;2698;51.454;6.736;2022-07-23T12:04:50;25.70;47.40
5352;DHT22;2698;51.454;6.736;2022-07-23T12:07:26;25.40;46.30
5352;DHT22;2698;51.454;6.736;2022-07-23T12:09:54;25.80;47.40
5352;DHT22;2698;51.454;6.736;2022-07-23T12:12:21;25.80;46.00
5352;DHT22;2698;51.454;6.736;2022-07-23T12:14:49;26.00;46.40
5352;DHT22;2698;51.454;6.736;2022-07-23T12:17:17;26.20;45.00
5352;DHT22;2698;51.454;6.736;2022-07-23T12:19:44;26.30;44.00
5352;DHT22;2698;51.454;6.736;2022-07-23T12:22:12;26.50;43.80
5352;DHT22;2698;51.454;6.736;2022-07-23T12:25:01;26.30;42.30
5352;DHT22;2698;51.454;6.736;2022-07-23T12:27:30;25.90;43.60
5352;DHT22;2698;51.454;6.736;2022-07-23T12:29:57;25.50;43.10
5352;DHT22;2698;51.454;6.736;2022-07-23T12:32:25;26.00;43.90
5352;DHT22;2698;51.454;6.736;2022-07-23T12:35:03;25.80;42.70
5352;DHT22;2698;51.454;6.736;2022-07-23T12:37:33;25.90;43.00
5352;DHT22;2698;51.454;6.736;2022-07-23T12:40:19;25.80;42.50
5352;DHT22;2698;51.454;6.736;2022-07-23T12:42:47;26.20;42.80
5352;DHT22;2698;51.454;6.736;2022-07-23T12:45:15;26.70;43.40
5352;DHT22;2698;51.454;6.736;2022-07-23T12:48:15;26.60;43.20
5352;DHT22;2698;51.454;6.736;2022-07-23T12:50:44;26.10;43.50
5352;DHT22;2698;51.454;6.736;2022-07-23T12:53:16;26.30;42.90
5352;DHT22;2698;51.454;6.736;2022-07-23T12:55:46;25.70;41.70
5352;DHT22;2698;51.454;6.736;2022-07-23T12:58:15;25.90;43.30
5352;DHT22;2698;51.454;6.736;2022-07-23T13:01:03;26.50;43.70
5352;DHT22;2698;51.454;6.736;2022-07-23T13:03:35;26.30;43.30
5352;DHT22;2698;51.454;6.736;2022-07-23T13:06:04;25.70;41.90
5352;DHT22;2698;51.454;6.736;2022-07-23T13:08:33;25.70;42.20
5352;DHT22;2698;51.454;6.736;2022-07-23T13:11:03;25.90;42.40
5352;DHT22;2698;51.454;6.736;2022-07-23T13:13:32;25.80;42.90
5352;DHT22;2698;51.454;6.736;2022-07-23T13:15:59;25.70;42.00
5352;DHT22;2698;51.454;6.736;2022-07-23T13:18:27;25.70;43.10
5352;DHT22;2698;51.454;6.736;2022-07-23T13:20:54;26.10;44.10
5352;DHT22;2698;51.454;6.736;2022-07-23T13:23:21;26.40;44.30
5352;DHT22;2698;51.454;6.736;2022-07-23T13:25:49;26.20;42.70
5352;DHT22;2698;51.454;6.736;2022-07-23T13:28:18;26.30;42.80
5352;DHT22;2698;51.454;6.736;2022-07-23T13:30:46;26.10;42.00
5352;DHT22;2698;51.454;6.736;2022-07-23T13:33:15;26.30;43.60
5352;DHT22;2698;51.454;6.736;2022-07-23T13:35:42;26.40;42.60
5352;DHT22;2698;51.454;6.736;2022-07-23T13:38:09;26.30;42.50
5352;DHT22;2698;51.454;6.736;2022-07-23T13:40:37;26.10;42.80
5352;DHT22;2698;51.454;6.736;2022-07-23T13:43:05;26.10;42.00
5352;DHT22;2698;51.454;6.736;2022-07-23T13:45:34;26.10;42.60
5352;DHT22;2698;51.454;6.736;2022-07-23T13:48:01;26.30;42.50
5352;DHT22;2698;51.454;6.736;2022-07-23T13:50:28;26.10;42.50
5352;DHT22;2698;51.454;6.736;2022-07-23T13:52:55;26.10;43.00
5352;DHT22;2698;51.454;6.736;2022-07-23T13:55:22;26.00;42.90
5352;DHT22;2698;51.454;6.736;2022-07-23T13:57:49;26.30;43.80
5352;DHT22;2698;51.454;6.736;2022-07-23T14:00:16;26.60;43.50
5352;DHT22;2698;51.454;6.736;2022-07-23T14:02:44;26.20;41.10
5352;DHT22;2698;51.454;6.736;2022-07-23T14:05:11;26.60;42.60
5352;DHT22;2698;51.454;6.736;2022-07-23T14:07:39;26.60;42.00
5352;DHT22;2698;51.454;6.736;2022-07-23T14:10:09;26.60;42.30
5352;DHT22;2698;51.454;6.736;2022-07-23T14:12:36;26.50;42.50
5352;DHT22;2698;51.454;6.736;2022-07-23T14:15:05;26.80;42.80
5352;DHT22;2698;51.454;6.736;2022-07-23T14:17:34;26.80;42.60
5352;DHT22;2698;51.454;6.736;2022-07-23T14:20:03;26.20;41.80
5352;DHT22;2698;51.454;6.736;2022-07-23T14:22:30;26.50;42.80
5352;DHT22;2698;51.454;6.736;2022-07-23T14:24:57;26.50;43.30
5352;DHT22;2698;51.454;6.736;2022-07-23T14:27:24;26.80;42.90
5352;DHT22;2698;51.454;6.736;2022-07-23T14:29:51;26.90;43.10
5352;DHT22;2698;51.454;6.736;2022-07-23T14:32:18;26.80;42.70
5352;DHT22;2698;51.454;6.736;2022-07-23T14:34:45;26.80;42.20
5352;DHT22;2698;51.454;6.736;2022-07-23T14:37:14;26.80;42.60
5352;DHT22;2698;51.454;6.736;2022-07-23T14:39:41;26.90;42.60
5352;DHT22;2698;51.454;6.736;2022-07-23T14:42:08;26.80;43.00
5352;DHT22;2698;51.454;6.736;2022-07-23T14:44:36;27.10;43.60
5352;DHT22;2698;51.454;6.736;2022-07-23T14:47:04;26.80;41.90
5352;DHT22;2698;51.454;6.736;2022-07-23T14:49:31;26.90;43.50
5352;DHT22;2698;51.454;6.736;2022-07-23T14:51:58;26.30;43.20
5352;DHT22;2698;51.454;6.736;2022-07-23T14:54:27;26.30;43.00
5352;DHT22;2698;51.454;6.736;2022-07-23T14:56:55;26.30;42.80
5352;DHT22;2698;51.454;6.736;2022-07-23T14:59:23;26.60;43.40
5352;DHT22;2698;51.454;6.736;2022-07-23T15:01:50;26.70;42.70
5352;DHT22;2698;51.454;6.736;2022-07-23T15:04:17;26.50;42.80
5352;DHT22;2698;51.454;6.736;2022-07-23T15:06:44;26.60;43.20
5352;DHT22;2698;51.454;6.736;2022-07-23T15:09:11;26.50;42.80
5352;DHT22;2698;51.454;6.736;2022-07-23T15:11:40;26.40;43.00
5352;DHT22;2698;51.454;6.736;2022-07-23T15:14:08;26.70;44.30
5352;DHT22;2698;51.454;6.736;2022-07-23T15:16:35;26.80;44.70
5352;DHT22;2698;51.454;6.736;2022-07-23T15:19:02;26.40;43.50
5352;DHT22;2698;51.454;6.736;2022-07-23T15:21:29;26.40;43.40
5352;DHT22;2698;51.454;6.736;2022-07-23T15:23:56;26.30;43.90
5352;DHT22;2698;51.454;6.736;2022-07-23T15:26:24;26.10;44.30
5352;DHT22;2698;51.454;6.736;2022-07-23T15:28:52;26.00;42.90
5352;DHT22;2698;51.454;6.736;2022-07-23T15:31:19;26.00;43.00
5352;DHT22;2698;51.454;6.736;2022-07-23T15:33:46;25.80;44.30
5352;DHT22;2698;51.454;6.736;2022-07-23T15:36:13;25.60;44.20
5352;DHT22;2698;51.454;6.736;2022-07-23T15:38:40;25.60;44.60
5352;DHT22;2698;51.454;6.736;2022-07-23T15:41:07;25.30;44.20
5352;DHT22;2698;51.454;6.736;2022-07-23T15:43:34;25.10;44.30
5352;DHT22;2698;51.454;6.736;2022-07-23T15:46:04;25.20;44.80
5352;DHT22;2698;51.454;6.736;2022-07-23T15:48:31;25.10;45.20
5352;DHT22;2698;51.454;6.736;2022-07-23T15:51:00;25.20;44.80
5352;DHT22;2698;51.454;6.736;2022-07-23T15:53:27;25.10;44.70
5352;DHT22;2698;51.454;6.736;2022-07-23T15:55:54;25.10;46.10
5352;DHT22;2698;51.454;6.736;2022-07-23T15:58:21;25.30;46.20
5352;DHT22;2698;51.454;6.736;2022-07-23T16:00:47;25.50;46.60
5352;DHT22;2698;51.454;6.736;2022-07-23T16:03:16;25.40;45.50
5352;DHT22;2698;51.454;6.736;2022-07-23T16:05:43;25.40;45.10
5352;DHT22;2698;51.454;6.736;2022-07-23T16:08:09;25.30;44.40
5352;DHT22;2698;51.454;6.736;2022-07-23T16:10:36;25.30;45.00
5352;DHT22;2698;51.454;6.736;2022-07-23T16:13:03;25.30;45.00
5352;DHT22;2698;51.454;6.736;2022-07-23T16:15:30;25.10;44.10